Accueil
METAR-TAF:

METAR-TAF

Aéroports :

Aéroport international de N'Djaména

Ndjamena, Tchad

latitude: 12-08N, longitude: 015-02E, altitude: 295 m

Observation

Le bulletin a été fait il y a 56 minutes, à 00:00 UTC
Vent 2 kt de nord-ouest
Température 23°C
Humidité 83%
Pression 1008 hPa
Visibilité 10 km ou plus
pas de nuages en-dessous de 1500 mètres et pas de cumulonimbus.

METAR: FTTJ 220000Z 31002KT CAVOK 23/20 Q1008 NOSIG

Heure: 01:56 (00:56 UTC)

Prévision

Le bulletin a été fait il y a 1 heure et 56 minutes, à 23:00 UTC
Prévision valable du 22 à 00 UTC au 23 à 06 UTC
Vent 5 kt de direction variable
Visibilité: 8000 m
Temporairement
du 22 à 04 UTC au 22 à 10 UTC
Visibilité: 4000 m
brume sèche
Probabilité 30% :
Temporairement
du 22 à 15 UTC au 22 à 21 UTC
orage

TAF: FTTJ 212300Z 2200/2306 VRB05KT 8000 NSC TEMPO 2204/2210 4000 HZ PROB30 TEMPO 2215/2221 TS

Observations et prévisions météorologiques de plus de 4000 aéroports (messages METAR et TAF).

Les stations disponibles sont représentées par des disques jaunes et rouges sur la carte.

Passer la souris dessus pour voir le nom de la station.

Cliquer dessus pour voir les observations et prévisions météorologiques.

Pour changer de carte: cliquez sur les boutons verts avec une croix noire pour zoomer, sur le bouton vert avec un tiret pour effectuer un zoom arrière, ou sur les flèches vertes pour les cartes adjacentes.


METAR-TAF: